Airfield :
LOGIN :

Register | Disclaimer

   EN    FR    IT 

 










Legend :    VFR   Marginal VFR   IFR   Intensive IFR   Very Intensive IFR
Visi :
Ceiling :
>= 8 km
>= 3000ft
5 to 8 km
1000 to 3000 ft
1500m to 5 km
500 to 1000 ft
800 to 1500m
200 to 500 ft
< 800m
< 200 ft
Symbols :   Thunderstorms  Fog  Heavy snow  Heavy precipitations  Wind > 20 kt
SIGMETs :     Misc.  Thunderstorms  Icing  Turbulence  Mountain Waves  Volcanic Ashes






- Airport Elevation : -11 ft
- IATA code : AMS


EHAM - Amsterdam Schiphol

CURRENT METAR :
  • 121325Z 17015KT 140V200 9999 FEW011 05/03 Q0995 NOSIG

EXPIRED METARs :
  • 121255Z 17016KT 9999 FEW010 05/03 Q0996 NOSIG
  • 121225Z 17012KT 140V200 9999 FEW011 05/03 Q0996 NOSIG
  • 121155Z 18011KT 140V200 9999 FEW011 05/03 Q0997 NOSIG
  • 121125Z 19013KT 9999 FEW008 05/03 Q0998 NOSIG
  • 121055Z 18011KT 150V210 9999 SCT010 04/03 Q0998 NOSIG

TAF TAF EHAM
Valid from the 12 at 12:00 until the 13 at 18:00 UTC


121056Z 1212/1318 18014KT 9999 FEW015
BECMG 1215/1218 16017G27KT
PROB30
TEMPO 1216/1220 7000 -RA BKN015
BECMG 1220/1223 6000 -RA BKN012
TEMPO 1223/1302 17021G32KT 4000 RADZ BKN007
BECMG 1301/1303 17010KT 9999 NSW
PROB40
TEMPO 1302/1311 4000 RADZ BKN007
BECMG 1309/1312 28014KT BKN025
TEMPO 1311/1318 5000 RA SHRA SCT015CB BKN018



MET'MAP, your aeronautical weather chart ! - Copyright ORBIFLY December 2007 - Disclaimer

ORBIFLY MET'MAP TEAM :

Programming & Development : Alexandra Zaïnal
Concept & original design : Baudouin d'Aumeries
Assistance for programming : Marc-Olivier Méhu
Technical & hardware support : Manuel Goepfert

Contact : metmap@orbifly.com




SOURCES & CREDITS :

   NOAA